Mexico, Maine
Current Conditions -  °F | °C
As of 7:52 AM on Sunday 23 Nov 2014 (Local Time) from KBML Reporting Station
Haze Haze  
Wind Chill: 37°   Ceiling: 1600
Heat Index: 37°   Visibility: 5mi
Dew Point: 34°   Wind: 3mph
Humidity: 89%   Direction: 60°ENE
Pressure: 30"   Gusts: NA
Location:  44.56°N, 70.54°W
Report Text: KBML 231252Z AUTO 06003KT 5SM BR OVC016 03/01 A3000 RMK AO2 RAB1156E09 SLP171 P0000 T00280011
Loading
Personal Weather Stations






























Interactive Weather Map New forecast layout! Learn more

10-Day Weather Forecast

Advertisements
Track Severe Weather on mobile